Tsm Penzer — FIZR — position and weather

sailwx.info

Track history (hours):
 
Tides and Currents Weather Stations Pressure Air Temp Water Temp Dewpoint Dewpoint Depression Visibility Wind Speed Wind Dir Waves Ship Positions

Tsm Penzer

Last reported at 2018-Feb-12 04:32 UTC. Time now 2018-Feb-17 20:18 UTC.
Position N 48°46' W 004°10'.

Length 28 m; draft 1 m.

Type: Other ship. MMSI: 228076900.

Date/timePositionNaut miles runAvg speedWind from/ knotsBaromVisibWave heightAir tempDewpointWater temp
2018-Feb-12 04:32N 48°46' W 004°10'010.3
2018-Feb-12 04:29N 48°46' W 004°11'510.3
2018-Feb-12 03:58N 48°45' W 004°19'510.6
2018-Feb-12 03:30N 48°43' W 004°26'510.7
2018-Feb-12 03:00N 48°41' W 004°34'510.7
2018-Feb-12 02:30N 48°39' W 004°40'510.4
2018-Feb-12 02:00N 48°36' W 004°47'510.3
2018-Feb-12 01:30N 48°31' W 004°49'5 9.8
2018-Feb-12 01:00N 48°26' W 004°49'510.2
2018-Feb-12 00:30N 48°21' W 004°48'4 8.3
2018-Feb-12 00:00N 48°20' W 004°42'5 9.3
2018-Feb-11 23:30N 48°20' W 004°35'4 8.4
2018-Feb-11 23:00N 48°22' W 004°29'1 1.5
2018-Feb-11 22:30N 48°23' W 004°29'0 0.0
2018-Feb-11 22:00N 48°23' W 004°29'0 0.0
2018-Feb-11 21:30N 48°23' W 004°29'0 0.0
2018-Feb-11 21:00N 48°23' W 004°29'0 0.0
2018-Feb-10 10:42N 48°23' W 004°29'0 0.0
2018-Feb-10 10:30N 48°23' W 004°29'0 0.0
2018-Feb-09 14:30N 48°23' W 004°29'0 0.0
2018-Feb-09 14:00N 48°23' W 004°29'0 0.0
2018-Feb-09 13:30N 48°23' W 004°29'0 0.0
2018-Feb-09 12:30N 48°23' W 004°29'0 0.0
2018-Feb-09 12:00N 48°23' W 004°29'0 0.0
2018-Feb-09 11:30N 48°23' W 004°29'0 0.2
2018-Feb-09 11:00N 48°23' W 004°29'1 1.8
2018-Feb-09 10:30N 48°23' W 004°27'  
2018-Feb-05 18:06N 48°23' W 004°29'0 0.0
2018-Feb-05 18:00N 48°23' W 004°29'0 0.0
2018-Feb-05 17:30N 48°23' W 004°29'0 0.0
2018-Feb-05 16:30N 48°23' W 004°29'1 2.0
2018-Feb-05 16:00N 48°23' W 004°27'0 0.0
2018-Feb-05 15:30N 48°23' W 004°27'5 2.6
2018-Feb-05 13:30N 48°18' W 004°25'0 0.0
2018-Feb-05 10:30N 48°18' W 004°25'0 0.2
2018-Feb-05 10:00N 48°18' W 004°25'0 0.3
2018-Feb-05 09:30N 48°18' W 004°25'0 0.6
2018-Feb-05 09:01N 48°18' W 004°24'0 0.2
2018-Feb-05 08:30N 48°18' W 004°24'3 5.5
2018-Feb-05 08:00N 48°19' W 004°28'4 7.1
2018-Feb-05 07:31N 48°23' W 004°29'1 2.2
2018-Feb-05 07:00N 48°23' W 004°27'0 1.0
2018-Feb-05 06:30N 48°23' W 004°28'1 0.6
2018-Feb-05 05:30N 48°23' W 004°29'0 0.0
2018-Feb-04 15:30N 48°23' W 004°29'0 0.0
2018-Feb-04 15:00N 48°23' W 004°29'0 0.0
2018-Feb-04 14:30N 48°23' W 004°29'0 0.0
2018-Feb-04 14:00N 48°23' W 004°29'0 0.0
2018-Feb-04 13:30N 48°23' W 004°29'0 0.0
2018-Feb-04 13:01N 48°23' W 004°29'0 0.0
2018-Feb-04 12:30N 48°23' W 004°29'0 0.0
2018-Feb-04 12:00N 48°23' W 004°29'0 0.0
2018-Feb-04 11:30N 48°23' W 004°29'0 0.0
2018-Feb-04 10:00N 48°23' W 004°29'0 0.0
2018-Feb-04 09:00N 48°23' W 004°29'0 0.0
2018-Feb-04 08:30N 48°23' W 004°29'0 0.0
2018-Feb-02 19:00N 48°23' W 004°29'2 4.5
2018-Feb-02 18:30N 48°21' W 004°31'510.1
2018-Feb-02 18:00N 48°20' W 004°39'510.8
2018-Feb-02 17:30N 48°20' W 004°47'510.4
2018-Feb-02 17:00N 48°24' W 004°51'510.7
2018-Feb-02 16:30N 48°28' W 004°57'2 2.0
2018-Feb-02 15:29N 48°28' W 005°00'10 9.9
2018-Feb-02 14:30N 48°22' W 004°49'510.6
2018-Feb-02 14:00N 48°20' W 004°42'5 9.6
2018-Feb-02 13:31N 48°21' W 004°35'4 8.3
2018-Feb-02 13:00N 48°22' W 004°29'1 1.1
2018-Feb-02 12:30N 48°23' W 004°29'0 0.0
2018-Feb-02 12:00N 48°23' W 004°29'2 3.2
2018-Feb-02 11:31N 48°23' W 004°26'1 2.8
2018-Feb-02 11:00N 48°23' W 004°29'0 0.2
2018-Feb-02 09:24N 48°23' W 004°29'0 0.0
2018-Feb-02 09:01N 48°23' W 004°29'0 0.0
2018-Feb-02 08:31N 48°23' W 004°29'0 0.0
2018-Feb-02 08:00N 48°23' W 004°29'0 0.8
2018-Feb-02 07:30N 48°23' W 004°29'1 2.9
2018-Feb-02 07:01N 48°23' W 004°26'0 0.1
2018-Feb-02 06:31N 48°23' W 004°26'  
Track history (hours):
 
Tides and Currents Weather Stations Pressure Air Temp Water Temp Dewpoint Dewpoint Depression Visibility Wind Speed Wind Dir Waves Ship Positions

Tsm Penzer

Last reported at 2018-Feb-12 04:32 UTC. Time now 2018-Feb-17 20:18 UTC.
Position N 48°46' W 004°10'.

Length 28 m; draft 1 m.

Type: Other ship. MMSI: 228076900.

Date/timePositionNaut miles runAvg speedWind from/ knotsBaromVisibWave heightAir tempDewpointWater temp
2018-Feb-12 04:32N 48°46' W 004°10'010.3
2018-Feb-12 04:29N 48°46' W 004°11'510.3
2018-Feb-12 03:58N 48°45' W 004°19'510.6
2018-Feb-12 03:30N 48°43' W 004°26'510.7
2018-Feb-12 03:00N 48°41' W 004°34'510.7
2018-Feb-12 02:30N 48°39' W 004°40'510.4
2018-Feb-12 02:00N 48°36' W 004°47'510.3
2018-Feb-12 01:30N 48°31' W 004°49'5 9.8
2018-Feb-12 01:00N 48°26' W 004°49'510.2
2018-Feb-12 00:30N 48°21' W 004°48'4 8.3
2018-Feb-12 00:00N 48°20' W 004°42'5 9.3
2018-Feb-11 23:30N 48°20' W 004°35'4 8.4
2018-Feb-11 23:00N 48°22' W 004°29'1 1.5
2018-Feb-11 22:30N 48°23' W 004°29'0 0.0
2018-Feb-11 22:00N 48°23' W 004°29'0 0.0
2018-Feb-11 21:30N 48°23' W 004°29'0 0.0
2018-Feb-11 21:00N 48°23' W 004°29'0 0.0
2018-Feb-10 10:42N 48°23' W 004°29'0 0.0
2018-Feb-10 10:30N 48°23' W 004°29'0 0.0
2018-Feb-09 14:30N 48°23' W 004°29'0 0.0
2018-Feb-09 14:00N 48°23' W 004°29'0 0.0
2018-Feb-09 13:30N 48°23' W 004°29'0 0.0
2018-Feb-09 12:30N 48°23' W 004°29'0 0.0
2018-Feb-09 12:00N 48°23' W 004°29'0 0.0
2018-Feb-09 11:30N 48°23' W 004°29'0 0.2
2018-Feb-09 11:00N 48°23' W 004°29'1 1.8
2018-Feb-09 10:30N 48°23' W 004°27'  
2018-Feb-05 18:06N 48°23' W 004°29'0 0.0
2018-Feb-05 18:00N 48°23' W 004°29'0 0.0
2018-Feb-05 17:30N 48°23' W 004°29'0 0.0
2018-Feb-05 16:30N 48°23' W 004°29'1 2.0
2018-Feb-05 16:00N 48°23' W 004°27'0 0.0
2018-Feb-05 15:30N 48°23' W 004°27'5 2.6
2018-Feb-05 13:30N 48°18' W 004°25'0 0.0
2018-Feb-05 10:30N 48°18' W 004°25'0 0.2
2018-Feb-05 10:00N 48°18' W 004°25'0 0.3
2018-Feb-05 09:30N 48°18' W 004°25'0 0.6
2018-Feb-05 09:01N 48°18' W 004°24'0 0.2
2018-Feb-05 08:30N 48°18' W 004°24'3 5.5
2018-Feb-05 08:00N 48°19' W 004°28'4 7.1
2018-Feb-05 07:31N 48°23' W 004°29'1 2.2
2018-Feb-05 07:00N 48°23' W 004°27'0 1.0
2018-Feb-05 06:30N 48°23' W 004°28'1 0.6
2018-Feb-05 05:30N 48°23' W 004°29'0 0.0
2018-Feb-04 15:30N 48°23' W 004°29'0 0.0
2018-Feb-04 15:00N 48°23' W 004°29'0 0.0
2018-Feb-04 14:30N 48°23' W 004°29'0 0.0
2018-Feb-04 14:00N 48°23' W 004°29'0 0.0
2018-Feb-04 13:30N 48°23' W 004°29'0 0.0
2018-Feb-04 13:01N 48°23' W 004°29'0 0.0
2018-Feb-04 12:30N 48°23' W 004°29'0 0.0
2018-Feb-04 12:00N 48°23' W 004°29'0 0.0
2018-Feb-04 11:30N 48°23' W 004°29'0 0.0
2018-Feb-04 10:00N 48°23' W 004°29'0 0.0
2018-Feb-04 09:00N 48°23' W 004°29'0 0.0
2018-Feb-04 08:30N 48°23' W 004°29'0 0.0
2018-Feb-02 19:00N 48°23' W 004°29'2 4.5
2018-Feb-02 18:30N 48°21' W 004°31'510.1
2018-Feb-02 18:00N 48°20' W 004°39'510.8
2018-Feb-02 17:30N 48°20' W 004°47'510.4
2018-Feb-02 17:00N 48°24' W 004°51'510.7
2018-Feb-02 16:30N 48°28' W 004°57'2 2.0
2018-Feb-02 15:29N 48°28' W 005°00'10 9.9
2018-Feb-02 14:30N 48°22' W 004°49'510.6
2018-Feb-02 14:00N 48°20' W 004°42'5 9.6
2018-Feb-02 13:31N 48°21' W 004°35'4 8.3
2018-Feb-02 13:00N 48°22' W 004°29'1 1.1
2018-Feb-02 12:30N 48°23' W 004°29'0 0.0
2018-Feb-02 12:00N 48°23' W 004°29'2 3.2
2018-Feb-02 11:31N 48°23' W 004°26'1 2.8
2018-Feb-02 11:00N 48°23' W 004°29'0 0.2
2018-Feb-02 09:24N 48°23' W 004°29'0 0.0
2018-Feb-02 09:01N 48°23' W 004°29'0 0.0
2018-Feb-02 08:31N 48°23' W 004°29'0 0.0
2018-Feb-02 08:00N 48°23' W 004°29'0 0.8
2018-Feb-02 07:30N 48°23' W 004°29'1 2.9
2018-Feb-02 07:01N 48°23' W 004°26'0 0.1
2018-Feb-02 06:31N 48°23' W 004°26'  

Dump ship's entire track history